Time;durP1;ratioP1;P1;durP2;ratioP2;P2;SDS_P1;SDS_P2;PMS_P1;PMS_P2;Temp;Humidity;BMP_temperature;BMP_pressure;BME280_temperature;BME280_humidity;BME280_pressure;Samples;Min_cycle;Max_cycle;Signal;HPM_P1;HPM_P2
2023/02/22 00:01:21;;;;;;;;;;;;;;;4.46;47.66;92737.44;2054760;69;20097;-79
2023/02/22 00:03:50;;;;;;;;;;;;;;;4.70;47.05;92737.97;2054995;69;20148;-79
2023/02/22 00:06:17;;;;;;;;;;;;;;;4.57;47.49;92742.53;2054834;69;20181;-79
2023/02/22 00:08:43;;;;;;;;;;;;;;;4.58;47.73;92737.69;2054817;69;20043;-80
2023/02/22 00:11:08;;;;;;;;;;;;;;;4.62;48.19;92729.66;2054563;70;20053;-79
2023/02/22 00:13:34;;;;;;;;;;;;;;;4.59;47.75;92737.13;2054113;70;20455;-81
2023/02/22 00:16:00;;;;;;;;;;;;;;;4.54;48.42;92729.75;2054866;69;20066;-80
2023/02/22 00:18:27;;;;;;;;;;;;;;;4.65;48.65;92728.53;2054855;69;20077;-76
2023/02/22 00:20:53;;;;;;;;;;;;;;;4.56;46.88;92723.59;2055165;69;20145;-77
2023/02/22 00:23:22;;;;;;;;;;;;;;;4.48;48.46;92725.69;2054689;69;20136;-78
2023/02/22 00:25:49;;;;;;;;;;;;;;;4.42;47.75;92725.22;2054243;69;20153;-74
2023/02/22 00:28:15;;;;;;;;;;;;;;;4.46;47.96;92717.91;2051708;70;20046;-79
2023/02/22 00:30:44;;;;;;;;;;;;;;;4.46;47.72;92723.50;2054169;69;20059;-79
2023/02/22 00:33:11;;;;;;;;;;;;;;;4.44;48.29;92714.22;2054975;69;20081;-78
2023/02/22 00:35:37;;;;;;;;;;;;;;;4.32;48.72;92719.53;2054209;70;20449;-80
2023/02/22 00:38:03;;;;;;;;;;;;;;;4.22;49.51;92727.78;2054693;69;20063;-80
2023/02/22 00:40:30;;;;;;;;;;;;;;;4.25;49.26;92725.91;2054699;69;20551;-81
2023/02/22 00:42:59;;;;;;;;;;;;;;;4.38;48.44;92713.72;2054597;69;20422;-81
2023/02/22 00:45:26;;;;;;;;;;;;;;;4.32;48.63;92714.69;2054243;70;20202;-79
2023/02/22 00:47:53;;;;;;;;;;;;;;;4.25;48.44;92717.53;2054071;70;20054;-80
2023/02/22 00:50:19;;;;;;;;;;;;;;;4.16;49.20;92712.59;2054481;69;20157;-82
2023/02/22 00:52:45;;;;;;;;;;;;;;;4.13;49.18;92710.97;2056956;69;20058;-79
2023/02/22 00:55:15;;;;;;;;;;;;;;;4.08;49.29;92710.63;2055057;69;20046;-78
2023/02/22 00:57:41;;;;;;;;;;;;;;;4.14;49.22;92707.59;2054832;69;20086;-76
2023/02/22 01:00:11;;;;;;;;;;;;;;;4.09;49.39;92708.56;2053994;70;20086;-75
2023/02/22 01:02:41;;;;;;;;;;;;;;;3.98;49.36;92698.59;2054808;69;20487;-80
2023/02/22 01:05:08;;;;;;;;;;;;;;;4.01;50.47;92696.72;2054313;70;20491;-80
2023/02/22 01:07:34;;;;;;;;;;;;;;;4.19;49.41;92692.69;2054555;69;20475;-80
2023/02/22 01:10:03;;;;;;;;;;;;;;;4.21;49.09;92684.50;2057038;69;20078;-73
2023/02/22 01:12:30;;;;;;;;;;;;;;;4.11;49.18;92697.56;2054779;69;20128;-76
2023/02/22 01:14:57;;;;;;;;;;;;;;;3.93;49.58;92685.63;2054567;69;20507;-73
2023/02/22 01:17:24;;;;;;;;;;;;;;;3.89;50.07;92690.13;2054588;69;20522;-74
2023/02/22 01:19:50;;;;;;;;;;;;;;;3.80;49.96;92686.69;2057097;69;20114;-76
2023/02/22 01:22:17;;;;;;;;;;;;;;;3.79;50.36;92682.41;2054384;69;20046;-74
2023/02/22 01:24:43;;;;;;;;;;;;;;;3.89;49.41;92687.34;2054669;69;20146;-78
2023/02/22 01:27:10;;;;;;;;;;;;;;;3.73;50.84;92678.38;2054247;69;20066;-73
2023/02/22 01:29:38;;;;;;;;;;;;;;;3.67;50.65;92680.66;2054797;70;20391;-74
2023/02/22 01:32:05;;;;;;;;;;;;;;;3.60;50.11;92679.38;2056299;69;20053;-77
2023/02/22 01:34:31;;;;;;;;;;;;;;;3.66;51.35;92682.66;2055032;70;20417;-76
2023/02/22 01:37:01;;;;;;;;;;;;;;;3.62;50.70;92674.00;2054854;70;20054;-81
2023/02/22 01:39:29;;;;;;;;;;;;;;;3.68;50.15;92674.50;2055494;69;20208;-79
2023/02/22 01:41:55;;;;;;;;;;;;;;;3.49;50.89;92669.44;2055255;70;20137;-79
2023/02/22 01:44:31;;;;;;;;;;;;;;;3.43;50.75;92676.50;2055468;69;20121;-81
2023/02/22 01:46:59;;;;;;;;;;;;;;;3.44;51.30;92673.16;2054992;69;20099;-80
2023/02/22 01:49:28;;;;;;;;;;;;;;;3.56;51.17;92670.66;2057595;69;20626;-80
2023/02/22 01:51:55;;;;;;;;;;;;;;;3.51;51.43;92666.06;2055527;69;20094;-77
2023/02/22 01:54:30;;;;;;;;;;;;;;;3.56;51.82;92668.63;2055367;69;20059;-80
2023/02/22 01:56:59;;;;;;;;;;;;;;;3.61;51.36;92666.94;2055222;69;20145;-80
2023/02/22 01:59:28;;;;;;;;;;;;;;;3.50;50.64;92659.75;2057648;69;20114;-76
2023/02/22 02:01:53;;;;;;;;;;;;;;;3.44;51.56;92666.88;2055406;69;20039;-78
2023/02/22 02:04:24;;;;;;;;;;;;;;;3.31;51.18;92659.50;2054890;70;20084;-74
2023/02/22 02:06:56;;;;;;;;;;;;;;;3.30;51.96;92669.16;2055297;69;20503;-79
2023/02/22 02:09:21;;;;;;;;;;;;;;;2.94;53.00;92659.13;2055407;69;20047;-74
2023/02/22 02:11:48;;;;;;;;;;;;;;;3.06;51.72;92660.16;2054643;70;20050;-78
2023/02/22 02:14:14;;;;;;;;;;;;;;;3.18;52.06;92656.97;2055346;69;20054;-78
2023/02/22 02:16:47;;;;;;;;;;;;;;;3.10;52.49;92661.84;2055233;69;20081;-79
2023/02/22 02:19:19;;;;;;;;;;;;;;;3.01;52.90;92647.22;2054702;69;20047;-81
2023/02/22 02:21:48;;;;;;;;;;;;;;;3.06;52.00;92654.59;2055058;69;20196;-81
2023/02/22 02:24:49;;;;;;;;;;;;;;;3.22;52.21;92651.78;2055203;69;20050;-79
2023/02/22 02:27:26;;;;;;;;;;;;;;;3.08;52.21;92656.09;2055144;69;20097;-80
2023/02/22 02:30:10;;;;;;;;;;;;;;;3.05;52.62;92644.78;2057505;69;20058;-79
2023/02/22 02:32:43;;;;;;;;;;;;;;;2.98;52.72;92656.69;2054748;69;20054;-80
2023/02/22 02:35:10;;;;;;;;;;;;;;;3.13;52.66;92649.59;2055130;69;20065;-81
2023/02/22 02:37:35;;;;;;;;;;;;;;;3.08;52.72;92647.75;2055487;70;20502;-80
2023/02/22 02:40:03;;;;;;;;;;;;;;;3.14;51.21;92639.94;2054638;70;20050;-80
2023/02/22 02:42:34;;;;;;;;;;;;;;;2.95;52.44;92643.19;2057202;69;20081;-80
2023/02/22 02:45:08;;;;;;;;;;;;;;;2.97;53.13;92630.19;2055133;69;20047;-78
2023/02/22 02:47:38;;;;;;;;;;;;;;;2.88;53.38;92630.78;2054676;69;20564;-80
2023/02/22 02:50:09;;;;;;;;;;;;;;;3.01;52.16;92632.56;2057352;69;20553;-79
2023/02/22 02:52:36;;;;;;;;;;;;;;;2.80;53.94;92628.03;2055024;70;20168;-79
2023/02/22 02:55:02;;;;;;;;;;;;;;;2.94;52.01;92627.81;2054927;69;20399;-81
2023/02/22 02:57:28;;;;;;;;;;;;;;;2.88;52.21;92622.44;2057074;69;20046;-78
2023/02/22 02:59:53;;;;;;;;;;;;;;;2.74;52.95;92626.75;2054708;70;20054;-76
2023/02/22 03:02:33;;;;;;;;;;;;;;;2.83;52.45;92628.94;2054849;69;20070;-78
2023/02/22 03:05:17;;;;;;;;;;;;;;;2.76;52.69;92624.16;2057197;69;20058;-74
2023/02/22 03:07:56;;;;;;;;;;;;;;;2.75;52.69;92626.22;2054523;70;20060;-74
2023/02/22 03:10:27;;;;;;;;;;;;;;;2.71;52.49;92620.28;2054536;69;20182;-74
2023/02/22 03:13:05;;;;;;;;;;;;;;;2.64;54.13;92615.50;2055030;69;20054;-74
2023/02/22 03:15:43;;;;;;;;;;;;;;;2.73;52.95;92614.91;2054327;70;20047;-75
2023/02/22 03:18:16;;;;;;;;;;;;;;;2.70;53.84;92613.25;2054046;70;20161;-74
2023/02/22 03:20:45;;;;;;;;;;;;;;;2.75;52.66;92615.09;2054621;70;20102;-74
2023/02/22 03:23:23;;;;;;;;;;;;;;;2.86;52.61;92607.63;2055066;69;20051;-80
2023/02/22 03:25:52;;;;;;;;;;;;;;;3.01;51.32;92618.66;2055009;69;20078;-81
2023/02/22 03:28:20;;;;;;;;;;;;;;;3.11;49.94;92616.75;2057311;69;20061;-79
2023/02/22 03:30:51;;;;;;;;;;;;;;;3.28;49.67;92613.34;2057026;69;20051;-79
2023/02/22 03:33:36;;;;;;;;;;;;;;;3.09;49.86;92610.28;2054838;69;20065;-80
2023/02/22 03:36:06;;;;;;;;;;;;;;;2.89;51.34;92609.28;2054268;70;20149;-80
2023/02/22 03:38:32;;;;;;;;;;;;;;;3.01;51.12;92601.97;2054222;70;20152;-79
2023/02/22 03:40:59;;;;;;;;;;;;;;;2.67;52.47;92605.31;2057246;69;20063;-79
2023/02/22 03:43:33;;;;;;;;;;;;;;;2.86;52.14;92605.59;2054143;69;20524;-78
2023/02/22 03:46:02;;;;;;;;;;;;;;;2.82;51.70;92607.28;2054232;70;20483;-79
2023/02/22 03:48:36;;;;;;;;;;;;;;;2.97;51.45;92598.84;2054210;70;20443;-79
2023/02/22 03:51:05;;;;;;;;;;;;;;;2.75;52.12;92601.19;2054378;70;20581;-80
2023/02/22 03:53:32;;;;;;;;;;;;;;;2.64;52.76;92590.47;2057233;69;20061;-80
2023/02/22 03:55:59;;;;;;;;;;;;;;;2.84;51.79;92605.41;2054339;69;20074;-80
2023/02/22 03:58:27;;;;;;;;;;;;;;;2.95;51.24;92602.19;2056950;69;20050;-80
2023/02/22 04:00:53;;;;;;;;;;;;;;;2.80;50.94;92602.28;2051345;70;20050;-77
2023/02/22 04:03:19;;;;;;;;;;;;;;;2.72;51.42;92602.31;2055073;69;20088;-77
2023/02/22 04:05:45;;;;;;;;;;;;;;;2.81;51.57;92600.97;2056961;69;20112;-76
2023/02/22 04:08:11;;;;;;;;;;;;;;;2.84;51.25;92601.88;2055036;69;20145;-76
2023/02/22 04:10:36;;;;;;;;;;;;;;;2.87;52.05;92589.63;2054956;70;20442;-80
2023/02/22 04:13:02;;;;;;;;;;;;;;;2.89;50.54;92590.56;2057433;69;20053;-79
2023/02/22 04:15:28;;;;;;;;;;;;;;;3.01;50.14;92596.41;2054322;70;20047;-79
2023/02/22 04:18:01;;;;;;;;;;;;;;;2.68;51.43;92598.44;2056821;69;20479;-79
2023/02/22 04:20:27;;;;;;;;;;;;;;;2.92;51.32;92600.53;2057193;69;20057;-81
2023/02/22 04:23:03;;;;;;;;;;;;;;;2.64;52.54;92592.53;2057382;69;20043;-80
2023/02/22 04:25:29;;;;;;;;;;;;;;;2.88;51.75;92591.84;2057149;69;20046;-81
2023/02/22 04:27:55;;;;;;;;;;;;;;;2.89;50.95;92584.25;2054877;69;20132;-80
2023/02/22 04:30:32;;;;;;;;;;;;;;;2.82;52.24;92591.31;2057242;69;20051;-77
2023/02/22 04:32:57;;;;;;;;;;;;;;;2.86;51.03;92582.59;2054036;69;20125;-78
2023/02/22 04:35:23;;;;;;;;;;;;;;;2.91;51.35;92590.00;2054862;69;20061;-80
2023/02/22 04:37:49;;;;;;;;;;;;;;;2.89;50.19;92581.47;2054533;69;20216;-77
2023/02/22 04:40:16;;;;;;;;;;;;;;;2.90;51.61;92580.19;2057225;69;20050;-73
2023/02/22 04:42:41;;;;;;;;;;;;;;;2.77;51.83;92579.13;2055058;69;20043;-72
2023/02/22 04:45:07;;;;;;;;;;;;;;;2.79;51.18;92582.09;2054526;70;20077;-80
2023/02/22 04:47:34;;;;;;;;;;;;;;;2.95;50.11;92573.66;2056828;69;20716;-80
2023/02/22 04:50:00;;;;;;;;;;;;;;;2.55;52.75;92579.94;2054562;70;20449;-81
2023/02/22 04:52:25;;;;;;;;;;;;;;;2.59;52.06;92574.75;2054578;70;20487;-80
2023/02/22 04:54:51;;;;;;;;;;;;;;;2.58;52.80;92573.28;2054852;69;20062;-82
2023/02/22 04:57:17;;;;;;;;;;;;;;;2.68;51.71;92579.72;2057206;69;20092;-82
2023/02/22 04:59:42;;;;;;;;;;;;;;;2.70;51.26;92573.59;2054538;70;20081;-80
2023/02/22 05:02:10;;;;;;;;;;;;;;;2.61;52.50;92572.16;2054237;69;20082;-81
2023/02/22 05:04:36;;;;;;;;;;;;;;;2.49;52.05;92569.06;2055077;70;20399;-80
2023/02/22 05:07:02;;;;;;;;;;;;;;;2.78;50.61;92563.16;2054710;69;20050;-80
2023/02/22 05:09:27;;;;;;;;;;;;;;;2.85;51.20;92565.19;2054798;69;20054;-79
2023/02/22 05:11:52;;;;;;;;;;;;;;;2.84;51.01;92562.94;2054711;70;20494;-77
2023/02/22 05:14:19;;;;;;;;;;;;;;;2.74;51.28;92566.34;2055159;69;20058;-79
2023/02/22 05:16:46;;;;;;;;;;;;;;;2.75;51.74;92567.09;2054891;69;20542;-75
2023/02/22 05:19:12;;;;;;;;;;;;;;;2.73;52.14;92566.91;2055355;69;20505;-81
2023/02/22 05:21:39;;;;;;;;;;;;;;;2.49;52.06;92563.50;2055372;69;20050;-79
2023/02/22 05:24:04;;;;;;;;;;;;;;;2.51;51.65;92565.69;2055510;69;20050;-79
2023/02/22 05:26:30;;;;;;;;;;;;;;;2.46;52.24;92561.09;2055219;69;20075;-75
2023/02/22 05:28:55;;;;;;;;;;;;;;;2.45;52.86;92563.13;2054517;70;20120;-80
2023/02/22 05:31:21;;;;;;;;;;;;;;;2.55;52.08;92560.50;2055241;69;20082;-81
2023/02/22 05:33:47;;;;;;;;;;;;;;;2.53;51.92;92568.66;2055212;69;20505;-81
2023/02/22 05:36:12;;;;;;;;;;;;;;;2.64;52.32;92562.69;2057632;69;20057;-81
2023/02/22 05:38:42;;;;;;;;;;;;;;;2.37;53.31;92561.69;2055583;69;20046;-81
2023/02/22 05:41:09;;;;;;;;;;;;;;;2.36;52.81;92555.38;2055450;69;20140;-74
2023/02/22 05:43:35;;;;;;;;;;;;;;;2.42;53.13;92557.97;2055522;69;20054;-74
2023/02/22 05:46:02;;;;;;;;;;;;;;;2.48;52.15;92556.47;2056690;69;20406;-79
2023/02/22 05:48:27;;;;;;;;;;;;;;;2.39;52.88;92551.50;2061928;69;20096;-81
2023/02/22 05:50:52;;;;;;;;;;;;;;;2.42;53.30;92560.72;2062007;69;20148;-79
2023/02/22 05:53:18;;;;;;;;;;;;;;;2.44;52.59;92560.94;2061714;69;20475;-77
2023/02/22 05:55:43;;;;;;;;;;;;;;;2.43;52.11;92559.44;2061466;69;20480;-81
2023/02/22 05:58:09;;;;;;;;;;;;;;;2.28;53.04;92566.50;2062048;69;20424;-80
2023/02/22 06:00:34;;;;;;;;;;;;;;;2.20;53.40;92567.84;2062193;69;20049;-82
2023/02/22 06:03:01;;;;;;;;;;;;;;;2.27;53.70;92559.50;2062003;69;20455;-80
2023/02/22 06:05:27;;;;;;;;;;;;;;;2.40;52.75;92563.34;2062219;69;20521;-81
2023/02/22 06:07:55;;;;;;;;;;;;;;;2.49;52.19;92557.19;2061476;69;20137;-80
2023/02/22 06:10:20;;;;;;;;;;;;;;;2.44;51.72;92564.44;2062078;69;20079;-83
2023/02/22 06:12:46;;;;;;;;;;;;;;;2.26;52.38;92560.06;2058022;69;20429;-77
2023/02/22 06:15:13;;;;;;;;;;;;;;;2.44;52.77;92561.66;2055362;69;20101;-78
2023/02/22 06:17:40;;;;;;;;;;;;;;;2.35;51.94;92561.50;2055426;69;20172;-82
2023/02/22 06:20:07;;;;;;;;;;;;;;;2.47;51.79;92557.00;2055442;69;20065;-83
2023/02/22 06:22:32;;;;;;;;;;;;;;;2.45;52.26;92565.91;2055445;69;20562;-84
2023/02/22 06:25:01;;;;;;;;;;;;;;;2.11;53.29;92574.72;2055457;70;20139;-82
2023/02/22 06:27:29;;;;;;;;;;;;;;;2.30;52.71;92574.31;2055288;69;20050;-82
2023/02/22 06:29:54;;;;;;;;;;;;;;;2.24;53.21;92568.19;2055336;69;20489;-82
2023/02/22 06:32:20;;;;;;;;;;;;;;;2.39;52.89;92568.16;2055156;69;20474;-81
2023/02/22 06:34:45;;;;;;;;;;;;;;;2.39;52.45;92575.75;2055312;69;20057;-82
2023/02/22 06:37:11;;;;;;;;;;;;;;;2.03;54.07;92579.56;2056051;69;20050;-80
2023/02/22 06:39:37;;;;;;;;;;;;;;;2.45;52.79;92581.84;2061570;69;20407;-80
2023/02/22 06:42:02;;;;;;;;;;;;;;;2.62;52.90;92586.78;2062023;69;20068;-83
2023/02/22 06:44:28;;;;;;;;;;;;;;;2.73;51.70;92587.09;2058677;69;20090;-83
2023/02/22 06:46:53;;;;;;;;;;;;;;;2.72;52.24;92588.41;2061478;69;20046;-80
2023/02/22 06:49:19;;;;;;;;;;;;;;;2.65;52.65;92586.38;2062114;69;20050;-79
2023/02/22 06:51:45;;;;;;;;;;;;;;;2.73;52.87;92587.09;2061908;69;20050;-81
2023/02/22 06:54:11;;;;;;;;;;;;;;;2.55;53.12;92583.47;2058645;69;20069;-81
2023/02/22 06:56:36;;;;;;;;;;;;;;;2.37;53.52;92587.41;2061458;69;20100;-78
2023/02/22 06:59:02;;;;;;;;;;;;;;;2.62;52.52;92581.97;2061950;69;20085;-81
2023/02/22 07:01:28;;;;;;;;;;;;;;;2.64;52.66;92586.97;2061752;69;20089;-79
2023/02/22 07:03:53;;;;;;;;;;;;;;;2.66;53.12;92587.88;2062026;69;20084;-81
2023/02/22 07:06:19;;;;;;;;;;;;;;;2.50;53.22;92584.41;2062006;69;20491;-80
2023/02/22 07:08:44;;;;;;;;;;;;;;;2.67;53.33;92588.63;2060374;69;20097;-81
2023/02/22 07:11:10;;;;;;;;;;;;;;;2.73;53.34;92584.31;2058710;69;20160;-80
2023/02/22 07:13:35;;;;;;;;;;;;;;;2.71;53.27;92589.72;2058506;69;20208;-79
2023/02/22 07:16:00;;;;;;;;;;;;;;;2.81;52.94;92584.28;2058568;69;20145;-74
2023/02/22 07:18:26;;;;;;;;;;;;;;;2.68;52.98;92587.31;2058505;69;20050;-79
2023/02/22 07:20:51;;;;;;;;;;;;;;;2.82;52.88;92585.03;2058717;69;20046;-82
2023/02/22 07:23:20;;;;;;;;;;;;;;;2.96;52.32;92586.25;2055365;69;20513;-77
2023/02/22 07:25:45;;;;;;;;;;;;;;;3.02;52.12;92578.44;2058574;69;20054;-79
2023/02/22 07:28:10;;;;;;;;;;;;;;;2.92;52.63;92589.41;2057887;69;20127;-81
2023/02/22 07:30:36;;;;;;;;;;;;;;;3.08;52.08;92578.97;2057140;69;20125;-81
2023/02/22 07:33:09;;;;;;;;;;;;;;;2.90;52.95;92583.69;2057960;69;20487;-81
2023/02/22 07:35:36;;;;;;;;;;;;;;;3.01;52.63;92582.50;2057584;69;20061;-82
2023/02/22 07:38:03;;;;;;;;;;;;;;;3.08;52.93;92570.63;2057387;69;20160;-81
2023/02/22 07:40:28;;;;;;;;;;;;;;;2.94;52.85;92575.69;2057349;69;20062;-82
2023/02/22 07:42:55;;;;;;;;;;;;;;;2.93;52.60;92574.22;2057582;69;20054;-78
2023/02/22 07:45:22;;;;;;;;;;;;;;;3.16;52.59;92570.56;2058089;69;20104;-82
2023/02/22 07:47:47;;;;;;;;;;;;;;;3.06;52.11;92570.44;2057686;69;20107;-81
2023/02/22 07:50:16;;;;;;;;;;;;;;;3.30;51.15;92564.16;2057379;69;20094;-80
2023/02/22 07:52:46;;;;;;;;;;;;;;;3.48;49.62;92561.44;2057630;69;20061;-80
2023/02/22 07:55:13;;;;;;;;;;;;;;;3.54;50.42;92564.75;2057269;69;20046;-82
2023/02/22 07:57:38;;;;;;;;;;;;;;;3.42;50.72;92555.34;2057741;69;20097;-82
2023/02/22 08:00:04;;;;;;;;;;;;;;;3.62;49.16;92559.84;2058043;69;20097;-82
2023/02/22 08:02:37;;;;;;;;;;;;;;;3.94;48.61;92558.25;2058044;69;20046;-82
2023/02/22 08:05:04;;;;;;;;;;;;;;;3.92;48.17;92555.31;2058649;69;20050;-79
2023/02/22 08:07:30;;;;;;;;;;;;;;;4.14;47.66;92543.22;2058561;69;20062;-79
2023/02/22 08:09:55;;;;;;;;;;;;;;;4.09;48.25;92546.97;2058457;69;20068;-79
2023/02/22 08:12:20;;;;;;;;;;;;;;;4.41;48.03;92545.34;2058482;69;20093;-81
2023/02/22 08:14:46;;;;;;;;;;;;;;;4.37;49.39;92547.81;2059005;69;20049;-82
2023/02/22 08:17:14;;;;;;;;;;;;;;;4.31;48.57;92548.78;2058365;69;20057;-80
2023/02/22 08:19:40;;;;;;;;;;;;;;;4.52;48.76;92533.69;2058427;69;20070;-82
2023/02/22 08:22:05;;;;;;;;;;;;;;;4.71;49.57;92539.38;2059025;69;20053;-83
2023/02/22 08:24:31;;;;;;;;;;;;;;;4.94;48.35;92539.09;2058688;69;20050;-82
2023/02/22 08:26:57;;;;;;;;;;;;;;;5.12;48.44;92528.63;2058503;69;20102;-83
2023/02/22 08:29:22;;;;;;;;;;;;;;;5.39;47.26;92541.81;2058526;69;20090;-82
2023/02/22 08:31:52;;;;;;;;;;;;;;;5.74;47.17;92534.03;2058520;69;20120;-82
2023/02/22 08:34:18;;;;;;;;;;;;;;;6.02;47.51;92533.38;2058340;69;20050;-81
2023/02/22 08:36:44;;;;;;;;;;;;;;;6.32;46.76;92532.09;2058438;69;20140;-81
2023/02/22 08:39:09;;;;;;;;;;;;;;;6.49;45.56;92524.88;2058422;69;20043;-81
2023/02/22 08:41:34;;;;;;;;;;;;;;;6.65;44.66;92520.47;2058284;69;20076;-80
2023/02/22 08:44:01;;;;;;;;;;;;;;;6.71;43.69;92520.16;2058575;69;20176;-81
2023/02/22 08:46:27;;;;;;;;;;;;;;;6.95;44.27;92521.16;2058407;69;20050;-81
2023/02/22 08:48:52;;;;;;;;;;;;;;;7.27;43.76;92522.69;2058275;69;20046;-82
2023/02/22 08:51:18;;;;;;;;;;;;;;;7.55;43.87;92515.50;2058336;69;20046;-81
2023/02/22 08:53:44;;;;;;;;;;;;;;;7.71;42.52;92518.72;2058116;69;20080;-80
2023/02/22 08:56:10;;;;;;;;;;;;;;;7.97;43.74;92509.28;2058660;69;20050;-80
2023/02/22 08:58:35;;;;;;;;;;;;;;;8.14;42.62;92508.28;2058470;69;20133;-80
2023/02/22 09:01:01;;;;;;;;;;;;;;;8.41;42.12;92505.16;2058594;69;20145;-80
2023/02/22 09:03:27;;;;;;;;;;;;;;;8.62;42.29;92510.03;2058242;69;20120;-79
2023/02/22 09:05:52;;;;;;;;;;;;;;;8.85;42.65;92500.97;2058506;69;20070;-80
2023/02/22 09:08:18;;;;;;;;;;;;;;;9.20;41.98;92498.25;2058396;69;20429;-84
2023/02/22 09:10:44;;;;;;;;;;;;;;;9.41;41.34;92497.44;2058599;69;20093;-82
2023/02/22 09:13:10;;;;;;;;;;;;;;;9.44;40.60;92493.41;2058713;69;20086;-80
2023/02/22 09:15:36;;;;;;;;;;;;;;;9.88;38.98;92492.56;2058540;69;20050;-81
2023/02/22 09:18:02;;;;;;;;;;;;;;;10.23;39.24;92491.06;2058429;69;20129;-82
2023/02/22 09:20:27;;;;;;;;;;;;;;;9.53;38.50;92486.19;2058654;69;20522;-81
2023/02/22 09:22:53;;;;;;;;;;;;;;;9.90;39.17;92481.44;2058479;69;20116;-80
2023/02/22 09:25:20;;;;;;;;;;;;;;;10.29;38.98;92477.38;2058653;69;20478;-81
2023/02/22 09:27:49;;;;;;;;;;;;;;;10.32;38.57;92476.88;2058241;69;20046;-79
2023/02/22 09:30:31;;;;;;;;;;;;;;;10.68;36.14;92474.69;2058438;69;20082;-81
2023/02/22 09:32:58;;;;;;;;;;;;;;;11.26;35.89;92467.31;2058130;69;20485;-80
2023/02/22 09:35:25;;;;;;;;;;;;;;;11.85;35.16;92459.91;2058423;69;20419;-80
2023/02/22 09:38:00;;;;;;;;;;;;;;;12.30;33.64;92461.50;2058393;69;20066;-80
2023/02/22 09:40:28;;;;;;;;;;;;;;;12.11;33.44;92451.38;2058332;69;20054;-81
2023/02/22 09:42:55;;;;;;;;;;;;;;;12.57;33.37;92452.25;2058315;69;20113;-81
2023/02/22 09:45:30;;;;;;;;;;;;;;;12.45;33.44;92453.09;2058303;69;20520;-81
2023/02/22 09:48:01;;;;;;;;;;;;;;;13.31;31.80;92448.75;2058189;69;20505;-80
2023/02/22 09:50:34;;;;;;;;;;;;;;;14.03;31.61;92449.88;2058312;69;20092;-80
2023/02/22 09:53:11;;;;;;;;;;;;;;;13.81;30.18;92449.63;2058270;69;20092;-80
2023/02/22 09:55:36;;;;;;;;;;;;;;;14.47;29.96;92439.72;2058181;69;20145;-80
2023/02/22 09:58:04;;;;;;;;;;;;;;;14.70;29.66;92435.75;2058236;69;20145;-79
2023/02/22 10:00:32;;;;;;;;;;;;;;;14.78;28.27;92435.38;2058323;69;20148;-79
2023/02/22 10:03:16;;;;;;;;;;;;;;;14.83;26.55;92424.94;2058261;69;20152;-78
2023/02/22 10:05:45;;;;;;;;;;;;;;;15.91;26.41;92415.66;2059368;69;20079;-80
2023/02/22 10:08:12;;;;;;;;;;;;;;;15.39;25.51;92420.75;2058861;69;20144;-78
2023/02/22 10:10:40;;;;;;;;;;;;;;;15.93;24.73;92415.00;2058747;69;20513;-79
2023/02/22 10:13:18;;;;;;;;;;;;;;;15.60;26.22;92413.03;2058722;69;20055;-78
2023/02/22 10:15:50;;;;;;;;;;;;;;;16.12;25.13;92413.53;2058619;69;20080;-78
2023/02/22 10:18:19;;;;;;;;;;;;;;;16.03;24.99;92404.00;2058563;69;20489;-79
2023/02/22 10:20:54;;;;;;;;;;;;;;;17.09;24.38;92413.31;2058603;69;20112;-78
2023/02/22 10:23:33;;;;;;;;;;;;;;;16.58;25.25;92403.06;2058063;69;20156;-79
2023/02/22 10:26:07;;;;;;;;;;;;;;;17.54;25.07;92409.72;2058674;69;20053;-79
2023/02/22 10:28:37;;;;;;;;;;;;;;;17.86;23.63;92400.00;2058740;69;20053;-78
2023/02/22 10:31:13;;;;;;;;;;;;;;;16.75;24.94;92402.25;2058668;69;20120;-77
2023/02/22 10:33:41;;;;;;;;;;;;;;;18.42;24.18;92406.59;2057978;69;20094;-77
2023/02/22 10:36:18;;;;;;;;;;;;;;;18.54;22.77;92403.31;2059048;69;20046;-79
2023/02/22 10:38:53;;;;;;;;;;;;;;;18.63;22.38;92399.28;2058983;69;20482;-79
2023/02/22 10:41:32;;;;;;;;;;;;;;;18.20;22.80;92386.75;2060086;69;20046;-79
2023/02/22 10:43:58;;;;;;;;;;;;;;;18.07;23.04;92390.66;2059051;69;20050;-78
2023/02/22 10:46:25;;;;;;;;;;;;;;;18.67;22.86;92392.97;2060128;69;20046;-79
2023/02/22 10:48:53;;;;;;;;;;;;;;;18.56;22.95;92396.97;2061598;69;20112;-78
2023/02/22 10:51:18;;;;;;;;;;;;;;;18.51;22.05;92387.59;2060282;69;20061;-78
2023/02/22 10:53:44;;;;;;;;;;;;;;;18.62;22.07;92385.72;2058931;69;20050;-78
2023/02/22 10:56:23;;;;;;;;;;;;;;;17.71;22.81;92378.91;2058883;69;20056;-78
2023/02/22 10:58:51;;;;;;;;;;;;;;;17.94;22.31;92383.16;2058646;69;20057;-78
2023/02/22 11:01:19;;;;;;;;;;;;;;;18.48;22.05;92378.25;2058736;69;20072;-79
2023/02/22 11:03:46;;;;;;;;;;;;;;;18.40;21.67;92368.75;2057982;69;20152;-79
2023/02/22 11:06:18;;;;;;;;;;;;;;;19.09;21.20;92361.97;2058587;69;20221;-78
2023/02/22 11:08:49;;;;;;;;;;;;;;;19.63;20.60;92361.78;2058634;69;20058;-78
2023/02/22 11:11:23;;;;;;;;;;;;;;;19.89;20.33;92353.06;2058719;69;20050;-77
2023/02/22 11:13:55;;;;;;;;;;;;;;;19.73;20.09;92350.59;2058656;69;20143;-78
2023/02/22 11:16:42;;;;;;;;;;;;;;;19.96;21.01;92343.19;2058796;69;20483;-80
2023/02/22 11:19:26;;;;;;;;;;;;;;;19.97;21.31;92346.78;2058617;69;20054;-78
2023/02/22 11:21:55;;;;;;;;;;;;;;;19.92;21.82;92340.25;2058629;69;20061;-79
2023/02/22 11:24:25;;;;;;;;;;;;;;;21.74;20.86;92337.66;2058683;69;20112;-77
2023/02/22 11:26:56;;;;;;;;;;;;;;;20.66;19.20;92319.53;2058682;69;20073;-78
2023/02/22 11:29:25;;;;;;;;;;;;;;;20.69;19.64;92323.16;2058499;69;20097;-75
2023/02/22 11:31:50;;;;;;;;;;;;;;;20.73;20.62;92320.38;2058305;69;20038;-78
2023/02/22 11:34:42;;;;;;;;;;;;;;;21.02;20.80;92318.69;2058535;69;20060;-79
2023/02/22 11:37:35;;;;;;;;;;;;;;;20.81;21.09;92315.50;2058092;69;20149;-78
2023/02/22 11:40:05;;;;;;;;;;;;;;;19.89;19.55;92304.50;2058309;69;20054;-78
2023/02/22 11:42:30;;;;;;;;;;;;;;;20.24;19.76;92305.16;2058551;69;20220;-81
2023/02/22 11:45:09;;;;;;;;;;;;;;;20.07;20.41;92298.44;2058602;69;20050;-80
2023/02/22 11:47:45;;;;;;;;;;;;;;;20.05;20.41;92301.25;2058504;69;20050;-80
2023/02/22 11:50:16;;;;;;;;;;;;;;;20.14;20.31;92291.41;2058564;69;20126;-82
2023/02/22 11:52:44;;;;;;;;;;;;;;;20.12;21.21;92296.38;2057955;69;20054;-80
2023/02/22 11:55:21;;;;;;;;;;;;;;;20.16;21.53;92288.59;2058685;69;20076;-79
2023/02/22 11:58:04;;;;;;;;;;;;;;;20.21;20.48;92281.56;2058482;69;20141;-78
2023/02/22 12:00:35;;;;;;;;;;;;;;;21.56;20.28;92283.72;2058938;69;20046;-77
2023/02/22 12:03:31;;;;;;;;;;;;;;;22.35;18.29;92286.13;2058460;69;20183;-80
2023/02/22 12:06:05;;;;;;;;;;;;;;;23.40;18.67;92271.25;2056888;69;20053;-80
2023/02/22 12:08:49;;;;;;;;;;;;;;;24.42;16.84;92272.47;2058578;69;20619;-81
2023/02/22 12:11:21;;;;;;;;;;;;;;;24.08;16.56;92270.16;2058430;69;20095;-82
2023/02/22 12:13:46;;;;;;;;;;;;;;;24.18;16.46;92264.44;2058527;69;20137;-79
2023/02/22 12:16:12;;;;;;;;;;;;;;;25.59;16.72;92268.19;2058592;69;20150;-81
2023/02/22 12:18:42;;;;;;;;;;;;;;;26.99;15.46;92259.66;2058389;69;20399;-80
2023/02/22 12:21:12;;;;;;;;;;;;;;;24.28;16.15;92253.00;2058574;69;20065;-81
2023/02/22 12:23:43;;;;;;;;;;;;;;;26.68;15.31;92253.38;2058517;69;20072;-81
2023/02/22 12:26:12;;;;;;;;;;;;;;;29.62;14.10;92256.50;2058423;69;20053;-81
2023/02/22 12:28:39;;;;;;;;;;;;;;;27.13;13.85;92245.13;2058359;69;20046;-80
2023/02/22 12:31:08;;;;;;;;;;;;;;;26.03;14.55;92234.94;2058509;69;20061;-79
2023/02/22 12:33:41;;;;;;;;;;;;;;;26.53;15.64;92232.53;2058246;69;20093;-78
2023/02/22 12:36:10;;;;;;;;;;;;;;;29.52;14.02;92236.34;2058479;69;20490;-81
2023/02/22 12:38:36;;;;;;;;;;;;;;;28.83;14.34;92235.25;2058406;69;20234;-81
2023/02/22 12:41:13;;;;;;;;;;;;;;;28.58;13.89;92232.69;2058452;69;20074;-81
2023/02/22 12:43:45;;;;;;;;;;;;;;;27.64;14.53;92230.19;2058470;69;20058;-81
2023/02/22 12:46:12;;;;;;;;;;;;;;;28.81;13.74;92226.59;2058703;69;20050;-80
2023/02/22 12:49:03;;;;;;;;;;;;;;;28.91;13.52;92223.56;2058350;69;20500;-82
2023/02/22 12:51:35;;;;;;;;;;;;;;;30.11;12.35;92224.38;2058378;69;20054;-79
2023/02/22 12:54:12;;;;;;;;;;;;;;;30.32;12.75;92223.97;2058325;69;20050;-80
2023/02/22 12:56:54;;;;;;;;;;;;;;;27.60;12.89;92219.38;2058391;69;20050;-78
2023/02/22 12:59:24;;;;;;;;;;;;;;;29.09;13.06;92208.81;2058431;69;20057;-78
2023/02/22 13:01:55;;;;;;;;;;;;;;;27.72;13.40;92207.00;2058354;69;20486;-81
2023/02/22 13:04:21;;;;;;;;;;;;;;;32.32;12.00;92210.41;2058398;69;20073;-79